sensor_id;sensor_type;location;lat;lon;timestamp;temperature;humidity
5607;DHT22;2825;53.116;9.392;2022-07-06T00:01:06;13.90;99.90
5607;DHT22;2825;53.116;9.392;2022-07-06T00:03:31;13.90;99.90
5607;DHT22;2825;53.116;9.392;2022-07-06T00:05:57;13.90;99.90
5607;DHT22;2825;53.116;9.392;2022-07-06T00:08:23;13.80;99.90
5607;DHT22;2825;53.116;9.392;2022-07-06T00:10:48;13.80;99.90
5607;DHT22;2825;53.116;9.392;2022-07-06T00:13:14;13.70;99.90
5607;DHT22;2825;53.116;9.392;2022-07-06T00:15:40;13.70;99.90
5607;DHT22;2825;53.116;9.392;2022-07-06T00:18:05;13.70;99.90
5607;DHT22;2825;53.116;9.392;2022-07-06T00:20:31;13.70;99.90
5607;DHT22;2825;53.116;9.392;2022-07-06T00:22:57;13.60;99.90
5607;DHT22;2825;53.116;9.392;2022-07-06T00:25:22;13.60;99.90
5607;DHT22;2825;53.116;9.392;2022-07-06T00:27:48;13.50;99.90
5607;DHT22;2825;53.116;9.392;2022-07-06T00:30:13;13.50;99.90
5607;DHT22;2825;53.116;9.392;2022-07-06T00:32:55;13.40;99.90
5607;DHT22;2825;53.116;9.392;2022-07-06T00:35:21;13.40;99.90
5607;DHT22;2825;53.116;9.392;2022-07-06T00:37:47;13.40;99.90
5607;DHT22;2825;53.116;9.392;2022-07-06T00:40:12;13.40;99.90
5607;DHT22;2825;53.116;9.392;2022-07-06T00:42:48;13.40;99.90
5607;DHT22;2825;53.116;9.392;2022-07-06T00:45:15;13.40;99.90
5607;DHT22;2825;53.116;9.392;2022-07-06T00:47:41;13.40;99.90
5607;DHT22;2825;53.116;9.392;2022-07-06T00:50:10;13.40;99.90
5607;DHT22;2825;53.116;9.392;2022-07-06T00:52:50;13.40;99.90
5607;DHT22;2825;53.116;9.392;2022-07-06T00:55:18;13.40;99.90
5607;DHT22;2825;53.116;9.392;2022-07-06T00:57:45;13.40;99.90
5607;DHT22;2825;53.116;9.392;2022-07-06T01:00:13;13.50;99.90
5607;DHT22;2825;53.116;9.392;2022-07-06T01:02:39;13.50;99.90
5607;DHT22;2825;53.116;9.392;2022-07-06T01:05:07;13.50;99.90
5607;DHT22;2825;53.116;9.392;2022-07-06T01:07:33;13.50;99.90
5607;DHT22;2825;53.116;9.392;2022-07-06T01:09:59;13.50;99.90
5607;DHT22;2825;53.116;9.392;2022-07-06T01:12:25;13.50;99.90
5607;DHT22;2825;53.116;9.392;2022-07-06T01:14:51;13.50;99.90
5607;DHT22;2825;53.116;9.392;2022-07-06T01:17:17;13.50;99.90
5607;DHT22;2825;53.116;9.392;2022-07-06T01:19:43;13.60;99.90
5607;DHT22;2825;53.116;9.392;2022-07-06T01:22:10;13.60;99.90
5607;DHT22;2825;53.116;9.392;2022-07-06T01:24:36;13.60;99.90
5607;DHT22;2825;53.116;9.392;2022-07-06T01:27:04;13.60;99.90
5607;DHT22;2825;53.116;9.392;2022-07-06T01:29:30;13.60;99.90
5607;DHT22;2825;53.116;9.392;2022-07-06T01:31:56;13.60;99.90
5607;DHT22;2825;53.116;9.392;2022-07-06T01:34:22;13.60;99.90
5607;DHT22;2825;53.116;9.392;2022-07-06T01:36:48;13.70;99.90
5607;DHT22;2825;53.116;9.392;2022-07-06T01:39:14;13.70;99.90
5607;DHT22;2825;53.116;9.392;2022-07-06T01:41:39;13.70;99.90
5607;DHT22;2825;53.116;9.392;2022-07-06T01:44:06;13.70;99.90
5607;DHT22;2825;53.116;9.392;2022-07-06T01:46:32;13.70;99.90
5607;DHT22;2825;53.116;9.392;2022-07-06T01:48:58;13.70;99.90
5607;DHT22;2825;53.116;9.392;2022-07-06T01:51:24;13.70;99.90
5607;DHT22;2825;53.116;9.392;2022-07-06T01:53:50;13.70;99.90
5607;DHT22;2825;53.116;9.392;2022-07-06T01:56:16;13.70;99.90
5607;DHT22;2825;53.116;9.392;2022-07-06T01:58:45;13.70;99.90
5607;DHT22;2825;53.116;9.392;2022-07-06T02:01:15;13.70;99.90
5607;DHT22;2825;53.116;9.392;2022-07-06T02:03:42;13.70;99.90
5607;DHT22;2825;53.116;9.392;2022-07-06T02:06:09;13.70;99.90
5607;DHT22;2825;53.116;9.392;2022-07-06T02:08:35;13.80;99.90
5607;DHT22;2825;53.116;9.392;2022-07-06T02:11:03;13.80;99.90
5607;DHT22;2825;53.116;9.392;2022-07-06T02:13:29;13.80;99.90
5607;DHT22;2825;53.116;9.392;2022-07-06T02:15:54;13.80;99.90
5607;DHT22;2825;53.116;9.392;2022-07-06T02:18:20;13.70;99.90
5607;DHT22;2825;53.116;9.392;2022-07-06T02:20:46;13.70;99.90
5607;DHT22;2825;53.116;9.392;2022-07-06T02:23:11;13.70;99.90
5607;DHT22;2825;53.116;9.392;2022-07-06T02:25:37;13.70;99.90
5607;DHT22;2825;53.116;9.392;2022-07-06T02:28:03;13.70;99.90
5607;DHT22;2825;53.116;9.392;2022-07-06T02:30:29;13.70;99.90
5607;DHT22;2825;53.116;9.392;2022-07-06T02:32:55;13.70;99.90
5607;DHT22;2825;53.116;9.392;2022-07-06T02:35:20;13.70;99.90
5607;DHT22;2825;53.116;9.392;2022-07-06T02:37:46;13.70;99.90
5607;DHT22;2825;53.116;9.392;2022-07-06T02:40:12;13.70;99.90
5607;DHT22;2825;53.116;9.392;2022-07-06T02:42:38;13.70;99.90
5607;DHT22;2825;53.116;9.392;2022-07-06T02:45:04;13.70;99.90
5607;DHT22;2825;53.116;9.392;2022-07-06T02:47:30;13.70;99.90
5607;DHT22;2825;53.116;9.392;2022-07-06T02:49:56;13.70;99.90
5607;DHT22;2825;53.116;9.392;2022-07-06T02:52:22;13.70;99.90
5607;DHT22;2825;53.116;9.392;2022-07-06T02:54:48;13.70;99.90
5607;DHT22;2825;53.116;9.392;2022-07-06T02:57:15;13.70;99.90
5607;DHT22;2825;53.116;9.392;2022-07-06T02:59:41;13.80;99.90
5607;DHT22;2825;53.116;9.392;2022-07-06T03:02:07;13.70;99.90
5607;DHT22;2825;53.116;9.392;2022-07-06T03:04:33;13.70;99.90
5607;DHT22;2825;53.116;9.392;2022-07-06T03:06:59;13.70;99.90
5607;DHT22;2825;53.116;9.392;2022-07-06T03:09:25;13.70;99.90
5607;DHT22;2825;53.116;9.392;2022-07-06T03:11:51;13.70;99.90
5607;DHT22;2825;53.116;9.392;2022-07-06T03:14:16;13.70;99.90
5607;DHT22;2825;53.116;9.392;2022-07-06T03:16:42;13.80;99.90
5607;DHT22;2825;53.116;9.392;2022-07-06T03:19:08;13.80;99.90
5607;DHT22;2825;53.116;9.392;2022-07-06T03:21:33;13.80;99.90
5607;DHT22;2825;53.116;9.392;2022-07-06T03:23:59;13.80;99.90
5607;DHT22;2825;53.116;9.392;2022-07-06T03:26:25;13.80;99.90
5607;DHT22;2825;53.116;9.392;2022-07-06T03:28:51;13.80;99.90
5607;DHT22;2825;53.116;9.392;2022-07-06T03:31:16;13.80;99.90
5607;DHT22;2825;53.116;9.392;2022-07-06T03:33:42;13.80;99.90
5607;DHT22;2825;53.116;9.392;2022-07-06T03:36:08;13.70;99.90
5607;DHT22;2825;53.116;9.392;2022-07-06T03:38:35;13.70;99.90
5607;DHT22;2825;53.116;9.392;2022-07-06T03:41:01;13.70;99.90
5607;DHT22;2825;53.116;9.392;2022-07-06T03:43:26;13.80;99.90
5607;DHT22;2825;53.116;9.392;2022-07-06T03:45:52;13.80;99.90
5607;DHT22;2825;53.116;9.392;2022-07-06T03:48:18;13.80;99.90
5607;DHT22;2825;53.116;9.392;2022-07-06T03:50:43;13.90;99.90
5607;DHT22;2825;53.116;9.392;2022-07-06T03:53:09;13.90;99.90
5607;DHT22;2825;53.116;9.392;2022-07-06T03:55:35;13.90;99.90
5607;DHT22;2825;53.116;9.392;2022-07-06T03:58:01;13.90;99.90
5607;DHT22;2825;53.116;9.392;2022-07-06T04:00:26;14.00;99.90
5607;DHT22;2825;53.116;9.392;2022-07-06T04:02:52;14.00;99.90
5607;DHT22;2825;53.116;9.392;2022-07-06T04:05:17;13.90;99.90
5607;DHT22;2825;53.116;9.392;2022-07-06T04:07:47;14.00;99.90
5607;DHT22;2825;53.116;9.392;2022-07-06T04:10:14;14.00;99.90
5607;DHT22;2825;53.116;9.392;2022-07-06T04:12:41;14.00;99.90
5607;DHT22;2825;53.116;9.392;2022-07-06T04:15:07;14.00;99.90
5607;DHT22;2825;53.116;9.392;2022-07-06T04:17:33;14.00;99.90
5607;DHT22;2825;53.116;9.392;2022-07-06T04:20:17;14.10;99.90
5607;DHT22;2825;53.116;9.392;2022-07-06T04:22:42;14.10;99.90
5607;DHT22;2825;53.116;9.392;2022-07-06T04:25:08;14.10;99.90
5607;DHT22;2825;53.116;9.392;2022-07-06T04:27:34;14.10;99.90
5607;DHT22;2825;53.116;9.392;2022-07-06T04:30:01;14.20;99.90
5607;DHT22;2825;53.116;9.392;2022-07-06T04:32:26;14.20;99.90
5607;DHT22;2825;53.116;9.392;2022-07-06T04:34:52;14.20;99.90
5607;DHT22;2825;53.116;9.392;2022-07-06T04:37:18;14.20;99.90
5607;DHT22;2825;53.116;9.392;2022-07-06T04:39:44;14.30;99.90
5607;DHT22;2825;53.116;9.392;2022-07-06T04:42:09;14.30;99.90
5607;DHT22;2825;53.116;9.392;2022-07-06T04:44:35;14.30;99.90
5607;DHT22;2825;53.116;9.392;2022-07-06T04:47:01;14.30;99.90
5607;DHT22;2825;53.116;9.392;2022-07-06T04:49:26;14.30;99.90
5607;DHT22;2825;53.116;9.392;2022-07-06T04:51:52;14.30;99.90
5607;DHT22;2825;53.116;9.392;2022-07-06T04:54:17;14.30;99.90
5607;DHT22;2825;53.116;9.392;2022-07-06T04:56:43;14.40;99.90
5607;DHT22;2825;53.116;9.392;2022-07-06T04:59:09;14.40;99.90
5607;DHT22;2825;53.116;9.392;2022-07-06T05:01:34;14.40;99.90
5607;DHT22;2825;53.116;9.392;2022-07-06T05:04:00;14.40;99.90
5607;DHT22;2825;53.116;9.392;2022-07-06T05:06:26;14.50;99.90
5607;DHT22;2825;53.116;9.392;2022-07-06T05:08:51;14.50;99.90
5607;DHT22;2825;53.116;9.392;2022-07-06T05:11:17;14.50;99.90
5607;DHT22;2825;53.116;9.392;2022-07-06T05:13:43;14.50;99.90
5607;DHT22;2825;53.116;9.392;2022-07-06T05:16:09;14.60;99.90
5607;DHT22;2825;53.116;9.392;2022-07-06T05:18:34;14.60;99.90
5607;DHT22;2825;53.116;9.392;2022-07-06T05:21:00;14.70;99.90
5607;DHT22;2825;53.116;9.392;2022-07-06T05:23:26;14.70;99.90
5607;DHT22;2825;53.116;9.392;2022-07-06T05:25:53;14.70;99.90
5607;DHT22;2825;53.116;9.392;2022-07-06T05:28:19;14.70;99.90
5607;DHT22;2825;53.116;9.392;2022-07-06T05:30:44;14.80;99.90
5607;DHT22;2825;53.116;9.392;2022-07-06T05:33:10;14.80;99.90
5607;DHT22;2825;53.116;9.392;2022-07-06T05:35:36;14.90;99.90
5607;DHT22;2825;53.116;9.392;2022-07-06T05:38:01;14.90;99.90
5607;DHT22;2825;53.116;9.392;2022-07-06T05:40:27;14.90;99.90
5607;DHT22;2825;53.116;9.392;2022-07-06T05:42:53;15.00;99.90
5607;DHT22;2825;53.116;9.392;2022-07-06T05:45:19;15.00;99.90
5607;DHT22;2825;53.116;9.392;2022-07-06T05:47:45;15.10;99.90
5607;DHT22;2825;53.116;9.392;2022-07-06T05:50:29;15.10;99.90
5607;DHT22;2825;53.116;9.392;2022-07-06T05:53:00;15.10;99.90
5607;DHT22;2825;53.116;9.392;2022-07-06T05:55:27;15.20;99.90
5607;DHT22;2825;53.116;9.392;2022-07-06T05:57:53;15.20;99.90
5607;DHT22;2825;53.116;9.392;2022-07-06T06:00:20;15.30;99.90
5607;DHT22;2825;53.116;9.392;2022-07-06T06:02:46;15.30;99.90
5607;DHT22;2825;53.116;9.392;2022-07-06T06:05:13;15.40;99.90
5607;DHT22;2825;53.116;9.392;2022-07-06T06:07:40;15.40;99.90
5607;DHT22;2825;53.116;9.392;2022-07-06T06:10:10;15.40;99.90
5607;DHT22;2825;53.116;9.392;2022-07-06T06:12:36;15.50;99.90
5607;DHT22;2825;53.116;9.392;2022-07-06T06:15:03;15.50;99.90
5607;DHT22;2825;53.116;9.392;2022-07-06T06:17:29;15.50;99.90
5607;DHT22;2825;53.116;9.392;2022-07-06T06:19:55;15.60;99.90
5607;DHT22;2825;53.116;9.392;2022-07-06T06:22:20;15.60;99.90
5607;DHT22;2825;53.116;9.392;2022-07-06T06:24:46;15.70;99.90
5607;DHT22;2825;53.116;9.392;2022-07-06T06:27:12;15.70;99.90
5607;DHT22;2825;53.116;9.392;2022-07-06T06:29:38;15.80;99.90
5607;DHT22;2825;53.116;9.392;2022-07-06T06:32:04;15.80;99.90
5607;DHT22;2825;53.116;9.392;2022-07-06T06:34:31;15.80;99.90
5607;DHT22;2825;53.116;9.392;2022-07-06T06:36:57;15.80;99.90
5607;DHT22;2825;53.116;9.392;2022-07-06T06:39:23;15.80;99.90
5607;DHT22;2825;53.116;9.392;2022-07-06T06:41:48;15.90;99.90
5607;DHT22;2825;53.116;9.392;2022-07-06T06:44:14;15.90;99.90
5607;DHT22;2825;53.116;9.392;2022-07-06T06:46:40;15.90;99.90
5607;DHT22;2825;53.116;9.392;2022-07-06T06:49:06;16.00;99.90
5607;DHT22;2825;53.116;9.392;2022-07-06T06:51:33;16.00;99.90
5607;DHT22;2825;53.116;9.392;2022-07-06T06:53:59;16.00;99.90
5607;DHT22;2825;53.116;9.392;2022-07-06T06:56:24;16.10;99.90
5607;DHT22;2825;53.116;9.392;2022-07-06T06:58:50;16.10;99.90
5607;DHT22;2825;53.116;9.392;2022-07-06T07:01:16;16.20;99.90
5607;DHT22;2825;53.116;9.392;2022-07-06T07:03:41;16.30;99.90
5607;DHT22;2825;53.116;9.392;2022-07-06T07:06:07;16.30;99.90
5607;DHT22;2825;53.116;9.392;2022-07-06T07:08:33;16.40;99.90
5607;DHT22;2825;53.116;9.392;2022-07-06T07:10:58;16.50;99.90
5607;DHT22;2825;53.116;9.392;2022-07-06T07:13:24;16.60;99.90
5607;DHT22;2825;53.116;9.392;2022-07-06T07:15:51;16.70;99.90
5607;DHT22;2825;53.116;9.392;2022-07-06T07:18:16;16.70;99.90
5607;DHT22;2825;53.116;9.392;2022-07-06T07:20:42;16.70;99.90
5607;DHT22;2825;53.116;9.392;2022-07-06T07:23:08;16.80;99.90
5607;DHT22;2825;53.116;9.392;2022-07-06T07:25:33;16.90;99.90
5607;DHT22;2825;53.116;9.392;2022-07-06T07:27:59;16.90;99.90
5607;DHT22;2825;53.116;9.392;2022-07-06T07:30:25;16.90;99.90
5607;DHT22;2825;53.116;9.392;2022-07-06T07:32:51;16.90;99.90
5607;DHT22;2825;53.116;9.392;2022-07-06T07:35:17;16.90;99.90
5607;DHT22;2825;53.116;9.392;2022-07-06T07:37:42;16.90;99.90
5607;DHT22;2825;53.116;9.392;2022-07-06T07:40:08;16.90;99.90
5607;DHT22;2825;53.116;9.392;2022-07-06T07:42:35;16.90;99.90
5607;DHT22;2825;53.116;9.392;2022-07-06T07:45:01;16.90;99.90
5607;DHT22;2825;53.116;9.392;2022-07-06T07:47:26;16.90;99.90
5607;DHT22;2825;53.116;9.392;2022-07-06T07:49:52;16.80;99.90
5607;DHT22;2825;53.116;9.392;2022-07-06T07:52:18;16.80;99.90
5607;DHT22;2825;53.116;9.392;2022-07-06T07:54:43;16.80;99.90
5607;DHT22;2825;53.116;9.392;2022-07-06T07:57:09;16.90;99.90
5607;DHT22;2825;53.116;9.392;2022-07-06T07:59:35;16.90;99.90
5607;DHT22;2825;53.116;9.392;2022-07-06T08:02:01;16.90;99.90
5607;DHT22;2825;53.116;9.392;2022-07-06T08:04:26;16.90;99.90
5607;DHT22;2825;53.116;9.392;2022-07-06T08:06:52;16.90;99.90
5607;DHT22;2825;53.116;9.392;2022-07-06T08:09:18;16.90;99.90
5607;DHT22;2825;53.116;9.392;2022-07-06T08:11:44;16.80;99.90
5607;DHT22;2825;53.116;9.392;2022-07-06T08:14:09;16.70;99.90
5607;DHT22;2825;53.116;9.392;2022-07-06T08:16:35;16.60;99.90
5607;DHT22;2825;53.116;9.392;2022-07-06T08:19:01;16.50;99.90
5607;DHT22;2825;53.116;9.392;2022-07-06T08:21:26;16.40;99.90
5607;DHT22;2825;53.116;9.392;2022-07-06T08:23:54;16.40;99.90
5607;DHT22;2825;53.116;9.392;2022-07-06T08:26:20;16.30;99.90
5607;DHT22;2825;53.116;9.392;2022-07-06T08:28:46;16.30;99.90
5607;DHT22;2825;53.116;9.392;2022-07-06T08:31:12;16.40;99.90
5607;DHT22;2825;53.116;9.392;2022-07-06T08:33:37;16.40;99.90
5607;DHT22;2825;53.116;9.392;2022-07-06T08:36:03;16.50;99.90
5607;DHT22;2825;53.116;9.392;2022-07-06T08:38:30;16.50;99.90
5607;DHT22;2825;53.116;9.392;2022-07-06T08:40:56;16.60;99.90
5607;DHT22;2825;53.116;9.392;2022-07-06T08:43:22;16.70;99.90
5607;DHT22;2825;53.116;9.392;2022-07-06T08:45:49;16.70;99.90
5607;DHT22;2825;53.116;9.392;2022-07-06T08:48:16;16.80;99.90
5607;DHT22;2825;53.116;9.392;2022-07-06T08:50:42;16.90;99.90
5607;DHT22;2825;53.116;9.392;2022-07-06T08:53:07;17.00;99.90
5607;DHT22;2825;53.116;9.392;2022-07-06T08:55:34;17.00;99.90
5607;DHT22;2825;53.116;9.392;2022-07-06T08:58:01;17.10;99.90
5607;DHT22;2825;53.116;9.392;2022-07-06T09:00:27;17.20;99.90
5607;DHT22;2825;53.116;9.392;2022-07-06T09:02:53;17.20;99.90
5607;DHT22;2825;53.116;9.392;2022-07-06T09:05:23;17.30;99.90
5607;DHT22;2825;53.116;9.392;2022-07-06T09:07:52;17.30;99.90
5607;DHT22;2825;53.116;9.392;2022-07-06T09:10:22;17.40;99.90
5607;DHT22;2825;53.116;9.392;2022-07-06T09:12:48;17.50;99.90
5607;DHT22;2825;53.116;9.392;2022-07-06T09:15:14;17.60;99.90
5607;DHT22;2825;53.116;9.392;2022-07-06T09:17:41;17.70;99.90
5607;DHT22;2825;53.116;9.392;2022-07-06T09:20:11;17.80;99.90
5607;DHT22;2825;53.116;9.392;2022-07-06T09:22:38;17.90;99.90
5607;DHT22;2825;53.116;9.392;2022-07-06T09:25:08;18.00;99.90
5607;DHT22;2825;53.116;9.392;2022-07-06T09:27:45;18.10;99.90
5607;DHT22;2825;53.116;9.392;2022-07-06T09:30:14;18.10;99.90
5607;DHT22;2825;53.116;9.392;2022-07-06T09:32:42;18.20;99.90
5607;DHT22;2825;53.116;9.392;2022-07-06T09:35:19;18.20;99.90
5607;DHT22;2825;53.116;9.392;2022-07-06T09:37:45;18.30;99.90
5607;DHT22;2825;53.116;9.392;2022-07-06T09:40:17;18.40;99.90
5607;DHT22;2825;53.116;9.392;2022-07-06T09:42:43;18.40;99.90
5607;DHT22;2825;53.116;9.392;2022-07-06T09:45:09;18.40;99.90
5607;DHT22;2825;53.116;9.392;2022-07-06T09:47:35;18.50;99.90
5607;DHT22;2825;53.116;9.392;2022-07-06T09:50:05;18.60;99.90
5607;DHT22;2825;53.116;9.392;2022-07-06T09:52:34;18.70;99.90
5607;DHT22;2825;53.116;9.392;2022-07-06T09:54:59;18.80;99.90
5607;DHT22;2825;53.116;9.392;2022-07-06T09:57:25;19.00;99.90
5607;DHT22;2825;53.116;9.392;2022-07-06T09:59:51;19.10;99.90
5607;DHT22;2825;53.116;9.392;2022-07-06T10:02:20;19.20;99.90
5607;DHT22;2825;53.116;9.392;2022-07-06T10:04:45;19.20;99.90
5607;DHT22;2825;53.116;9.392;2022-07-06T10:07:12;19.20;99.90
5607;DHT22;2825;53.116;9.392;2022-07-06T10:09:39;19.20;99.90
5607;DHT22;2825;53.116;9.392;2022-07-06T10:12:09;19.30;99.90
5607;DHT22;2825;53.116;9.392;2022-07-06T10:14:38;19.30;99.90
5607;DHT22;2825;53.116;9.392;2022-07-06T10:17:05;19.30;99.90
5607;DHT22;2825;53.116;9.392;2022-07-06T10:19:32;19.30;99.90
5607;DHT22;2825;53.116;9.392;2022-07-06T10:22:07;19.30;99.90
5607;DHT22;2825;53.116;9.392;2022-07-06T10:24:33;19.30;99.90
5607;DHT22;2825;53.116;9.392;2022-07-06T10:27:04;19.30;99.90
5607;DHT22;2825;53.116;9.392;2022-07-06T10:29:31;19.30;99.90
5607;DHT22;2825;53.116;9.392;2022-07-06T10:31:59;19.30;99.90
5607;DHT22;2825;53.116;9.392;2022-07-06T10:34:25;19.20;99.90
5607;DHT22;2825;53.116;9.392;2022-07-06T10:36:52;19.20;99.90
5607;DHT22;2825;53.116;9.392;2022-07-06T10:39:34;19.30;99.90
5607;DHT22;2825;53.116;9.392;2022-07-06T10:45:14;19.30;99.90
5607;DHT22;2825;53.116;9.392;2022-07-06T10:47:43;19.30;99.90
5607;DHT22;2825;53.116;9.392;2022-07-06T10:50:10;19.40;99.90
5607;DHT22;2825;53.116;9.392;2022-07-06T10:53:22;19.40;99.90
5607;DHT22;2825;53.116;9.392;2022-07-06T10:55:50;19.50;99.90
5607;DHT22;2825;53.116;9.392;2022-07-06T11:01:01;19.60;99.90
5607;DHT22;2825;53.116;9.392;2022-07-06T11:03:48;19.60;99.90
5607;DHT22;2825;53.116;9.392;2022-07-06T11:11:24;19.60;99.90
5607;DHT22;2825;53.116;9.392;2022-07-06T11:14:16;19.40;99.90
5607;DHT22;2825;53.116;9.392;2022-07-06T11:19:16;19.30;99.90
5607;DHT22;2825;53.116;9.392;2022-07-06T11:21:53;19.20;99.90
5607;DHT22;2825;53.116;9.392;2022-07-06T11:24:32;19.10;99.90
5607;DHT22;2825;53.116;9.392;2022-07-06T11:26:59;19.10;99.90
5607;DHT22;2825;53.116;9.392;2022-07-06T11:29:27;19.10;99.90
5607;DHT22;2825;53.116;9.392;2022-07-06T11:31:55;19.20;99.90
5607;DHT22;2825;53.116;9.392;2022-07-06T11:34:26;19.30;99.90
5607;DHT22;2825;53.116;9.392;2022-07-06T11:36:59;19.40;99.90
5607;DHT22;2825;53.116;9.392;2022-07-06T11:39:29;19.60;99.90
5607;DHT22;2825;53.116;9.392;2022-07-06T11:41:56;19.70;99.90
5607;DHT22;2825;53.116;9.392;2022-07-06T11:44:22;19.80;99.90
5607;DHT22;2825;53.116;9.392;2022-07-06T11:46:48;19.80;99.90
5607;DHT22;2825;53.116;9.392;2022-07-06T11:49:14;19.90;99.90
5607;DHT22;2825;53.116;9.392;2022-07-06T11:51:41;19.80;99.90
5607;DHT22;2825;53.116;9.392;2022-07-06T11:54:12;19.90;99.90
5607;DHT22;2825;53.116;9.392;2022-07-06T11:56:55;20.10;99.90
5607;DHT22;2825;53.116;9.392;2022-07-06T11:59:29;20.40;99.90
5607;DHT22;2825;53.116;9.392;2022-07-06T12:02:02;20.50;99.90
5607;DHT22;2825;53.116;9.392;2022-07-06T12:04:29;20.50;99.90
5607;DHT22;2825;53.116;9.392;2022-07-06T12:06:59;20.50;99.90
5607;DHT22;2825;53.116;9.392;2022-07-06T12:09:25;20.30;99.90
5607;DHT22;2825;53.116;9.392;2022-07-06T12:11:51;20.20;99.90
5607;DHT22;2825;53.116;9.392;2022-07-06T12:14:19;20.10;99.90
5607;DHT22;2825;53.116;9.392;2022-07-06T12:16:46;19.90;99.90
5607;DHT22;2825;53.116;9.392;2022-07-06T12:19:13;19.80;99.90
5607;DHT22;2825;53.116;9.392;2022-07-06T12:21:47;19.80;99.90
5607;DHT22;2825;53.116;9.392;2022-07-06T12:24:17;19.80;99.90
5607;DHT22;2825;53.116;9.392;2022-07-06T12:26:43;19.80;99.90
5607;DHT22;2825;53.116;9.392;2022-07-06T12:29:11;19.80;99.90
5607;DHT22;2825;53.116;9.392;2022-07-06T12:39:14;19.80;99.90
5607;DHT22;2825;53.116;9.392;2022-07-06T12:41:49;20.00;99.90
5607;DHT22;2825;53.116;9.392;2022-07-06T12:44:17;20.10;99.90
5607;DHT22;2825;53.116;9.392;2022-07-06T12:46:44;20.30;99.90
5607;DHT22;2825;53.116;9.392;2022-07-06T12:49:21;20.50;99.90
5607;DHT22;2825;53.116;9.392;2022-07-06T12:54:16;20.90;99.90
5607;DHT22;2825;53.116;9.392;2022-07-06T12:59:30;21.10;99.90
5607;DHT22;2825;53.116;9.392;2022-07-06T13:01:56;21.20;99.90
5607;DHT22;2825;53.116;9.392;2022-07-06T13:04:23;21.20;99.90
5607;DHT22;2825;53.116;9.392;2022-07-06T13:06:49;21.30;99.90
5607;DHT22;2825;53.116;9.392;2022-07-06T13:09:15;21.50;99.90
5607;DHT22;2825;53.116;9.392;2022-07-06T13:11:42;21.50;99.90
5607;DHT22;2825;53.116;9.392;2022-07-06T13:14:08;21.60;99.90
5607;DHT22;2825;53.116;9.392;2022-07-06T13:16:35;21.70;99.90
5607;DHT22;2825;53.116;9.392;2022-07-06T13:19:01;21.60;99.90
5607;DHT22;2825;53.116;9.392;2022-07-06T13:21:27;21.50;99.90
5607;DHT22;2825;53.116;9.392;2022-07-06T13:23:53;21.50;99.90
5607;DHT22;2825;53.116;9.392;2022-07-06T13:26:19;21.50;99.90
5607;DHT22;2825;53.116;9.392;2022-07-06T13:28:44;21.50;99.90
5607;DHT22;2825;53.116;9.392;2022-07-06T13:31:10;21.70;99.70
5607;DHT22;2825;53.116;9.392;2022-07-06T13:33:36;21.80;99.90
5607;DHT22;2825;53.116;9.392;2022-07-06T13:36:02;22.00;99.80
5607;DHT22;2825;53.116;9.392;2022-07-06T13:38:27;22.10;99.70
5607;DHT22;2825;53.116;9.392;2022-07-06T13:40:54;22.10;99.60
5607;DHT22;2825;53.116;9.392;2022-07-06T13:43:20;22.10;99.30
5607;DHT22;2825;53.116;9.392;2022-07-06T13:45:48;22.20;99.10
5607;DHT22;2825;53.116;9.392;2022-07-06T13:48:14;22.30;99.20
5607;DHT22;2825;53.116;9.392;2022-07-06T13:50:40;22.40;98.90
5607;DHT22;2825;53.116;9.392;2022-07-06T13:53:06;22.50;98.70
5607;DHT22;2825;53.116;9.392;2022-07-06T13:55:32;22.50;98.80
5607;DHT22;2825;53.116;9.392;2022-07-06T13:57:58;22.50;98.50
5607;DHT22;2825;53.116;9.392;2022-07-06T14:00:24;22.70;98.80
5607;DHT22;2825;53.116;9.392;2022-07-06T14:02:50;22.70;97.20
5607;DHT22;2825;53.116;9.392;2022-07-06T14:05:16;22.80;97.60
5607;DHT22;2825;53.116;9.392;2022-07-06T14:07:41;22.70;97.50
5607;DHT22;2825;53.116;9.392;2022-07-06T14:10:07;22.70;98.00
5607;DHT22;2825;53.116;9.392;2022-07-06T14:12:33;22.70;98.70
5607;DHT22;2825;53.116;9.392;2022-07-06T14:14:59;22.80;98.60
5607;DHT22;2825;53.116;9.392;2022-07-06T14:17:25;22.80;98.70
5607;DHT22;2825;53.116;9.392;2022-07-06T14:19:51;22.70;98.20
5607;DHT22;2825;53.116;9.392;2022-07-06T14:22:17;22.60;98.30
5607;DHT22;2825;53.116;9.392;2022-07-06T14:24:43;22.60;98.30
5607;DHT22;2825;53.116;9.392;2022-07-06T14:27:08;22.60;98.40
5607;DHT22;2825;53.116;9.392;2022-07-06T14:29:34;22.60;98.70
5607;DHT22;2825;53.116;9.392;2022-07-06T14:32:00;22.70;98.90
5607;DHT22;2825;53.116;9.392;2022-07-06T14:34:25;22.60;98.10
5607;DHT22;2825;53.116;9.392;2022-07-06T14:36:52;22.60;98.00
5607;DHT22;2825;53.116;9.392;2022-07-06T14:39:17;22.60;98.30
5607;DHT22;2825;53.116;9.392;2022-07-06T14:41:43;22.70;98.00
5607;DHT22;2825;53.116;9.392;2022-07-06T14:44:09;22.70;97.10
5607;DHT22;2825;53.116;9.392;2022-07-06T14:46:34;22.70;97.90
5607;DHT22;2825;53.116;9.392;2022-07-06T14:49:00;22.60;97.40
5607;DHT22;2825;53.116;9.392;2022-07-06T14:51:27;22.50;97.80
5607;DHT22;2825;53.116;9.392;2022-07-06T14:53:52;22.40;97.50
5607;DHT22;2825;53.116;9.392;2022-07-06T14:56:18;22.40;98.10
5607;DHT22;2825;53.116;9.392;2022-07-06T14:58:44;22.40;98.10
5607;DHT22;2825;53.116;9.392;2022-07-06T15:01:10;22.30;97.50
5607;DHT22;2825;53.116;9.392;2022-07-06T15:03:36;22.20;98.00
5607;DHT22;2825;53.116;9.392;2022-07-06T15:06:02;22.20;98.30
5607;DHT22;2825;53.116;9.392;2022-07-06T15:08:28;22.10;98.40
5607;DHT22;2825;53.116;9.392;2022-07-06T15:10:54;22.00;97.90
5607;DHT22;2825;53.116;9.392;2022-07-06T15:13:20;21.80;98.60
5607;DHT22;2825;53.116;9.392;2022-07-06T15:15:46;21.80;98.70
5607;DHT22;2825;53.116;9.392;2022-07-06T15:18:12;21.80;98.90
5607;DHT22;2825;53.116;9.392;2022-07-06T15:20:37;21.80;99.00
5607;DHT22;2825;53.116;9.392;2022-07-06T15:23:03;21.80;98.90
5607;DHT22;2825;53.116;9.392;2022-07-06T15:25:29;21.80;98.80
5607;DHT22;2825;53.116;9.392;2022-07-06T15:27:55;21.60;98.50
5607;DHT22;2825;53.116;9.392;2022-07-06T15:30:21;21.50;98.60
5607;DHT22;2825;53.116;9.392;2022-07-06T15:32:48;21.50;98.40
5607;DHT22;2825;53.116;9.392;2022-07-06T15:35:14;21.50;98.80
5607;DHT22;2825;53.116;9.392;2022-07-06T15:37:40;21.50;98.80
5607;DHT22;2825;53.116;9.392;2022-07-06T15:40:07;21.70;98.80
5607;DHT22;2825;53.116;9.392;2022-07-06T15:42:38;21.80;98.90
5607;DHT22;2825;53.116;9.392;2022-07-06T15:45:05;22.00;99.00
5607;DHT22;2825;53.116;9.392;2022-07-06T15:47:30;22.10;98.40
5607;DHT22;2825;53.116;9.392;2022-07-06T15:49:56;22.00;98.10
5607;DHT22;2825;53.116;9.392;2022-07-06T15:52:22;22.00;98.00
5607;DHT22;2825;53.116;9.392;2022-07-06T15:54:47;22.10;98.30
5607;DHT22;2825;53.116;9.392;2022-07-06T15:57:14;22.20;98.10
5607;DHT22;2825;53.116;9.392;2022-07-06T15:59:40;22.30;97.80
5607;DHT22;2825;53.116;9.392;2022-07-06T16:02:05;22.40;97.70
5607;DHT22;2825;53.116;9.392;2022-07-06T16:04:31;22.40;97.60
5607;DHT22;2825;53.116;9.392;2022-07-06T16:06:57;22.40;96.60
5607;DHT22;2825;53.116;9.392;2022-07-06T16:09:22;22.20;95.50
5607;DHT22;2825;53.116;9.392;2022-07-06T16:11:48;22.00;95.60
5607;DHT22;2825;53.116;9.392;2022-07-06T16:14:15;21.80;96.10
5607;DHT22;2825;53.116;9.392;2022-07-06T16:16:42;21.70;96.10
5607;DHT22;2825;53.116;9.392;2022-07-06T16:19:07;21.60;96.00
5607;DHT22;2825;53.116;9.392;2022-07-06T16:21:33;21.40;95.50
5607;DHT22;2825;53.116;9.392;2022-07-06T16:23:59;21.30;95.80
5607;DHT22;2825;53.116;9.392;2022-07-06T16:26:25;21.30;95.60